Terminal Aerodrome Forecast
Issued by NWS Albany, NY

Home | Current Version | Previous Version | Text Only | Print | Product List | Glossary On
Versions: 1 2 3 4 5 6 7 8 9 10 11 12 13 14 15 16 17 18 19 20 21 22 23 24
000
FTUS41 KALY 182300 RRA
TAFPOU
TAF
KPOU 182342Z 1900/1924 29007KT P6SM BKN040 OVC060
     FM190300 31006KT P6SM BKN040
     FM190900 32005KT P6SM SCT040 BKN060
     FM191400 33010KT P6SM SCT060
     FM191800 32008KT P6SM SKC=

USA.gov is the U.S. government's official web portal to all federal, state and local government web resources and services.